createdAt,value
2019-02-04T00:00:46.984Z,361
2019-02-04T00:01:54.177Z,362
2019-02-04T00:03:01.432Z,362
2019-02-04T00:04:08.626Z,362
2019-02-04T00:05:15.815Z,362
2019-02-04T00:06:23.002Z,362
2019-02-04T00:07:30.215Z,361
2019-02-04T00:08:37.406Z,361
2019-02-04T00:09:44.597Z,361
2019-02-04T00:10:51.512Z,362
2019-02-04T00:11:58.704Z,361
2019-02-04T00:13:06.122Z,362
2019-02-04T00:14:13.309Z,362
2019-02-04T00:15:20.337Z,362
2019-02-04T00:16:27.256Z,363
2019-02-04T00:17:34.447Z,363
2019-02-04T00:18:41.658Z,363
2019-02-04T00:19:48.838Z,362
2019-02-04T00:20:55.797Z,363
2019-02-04T00:22:03.435Z,361
2019-02-04T00:23:11.192Z,361
2019-02-04T00:24:19.050Z,362
2019-02-04T00:25:27.297Z,361
2019-02-04T00:26:35.249Z,361
2019-02-04T00:27:43.632Z,361
2019-02-04T00:28:52.065Z,362
2019-02-04T00:30:00.337Z,362
2019-02-04T00:31:08.824Z,363
2019-02-04T00:32:16.939Z,363
2019-02-04T00:33:25.053Z,364
2019-02-04T00:34:33.041Z,362
2019-02-04T00:35:40.925Z,362
2019-02-04T00:36:48.138Z,362
2019-02-04T00:37:55.405Z,362
2019-02-04T00:39:03.610Z,361
2019-02-04T00:40:10.799Z,361
2019-02-04T00:41:17.987Z,361
2019-02-04T00:42:25.181Z,360
2019-02-04T00:43:32.095Z,360
2019-02-04T00:44:39.286Z,360
2019-02-04T00:45:46.476Z,360
2019-02-04T00:46:53.691Z,361
2019-02-04T00:48:00.884Z,360
2019-02-04T00:49:08.070Z,361
2019-02-04T00:50:15.259Z,361
2019-02-04T00:51:22.448Z,362
2019-02-04T00:52:29.637Z,361
2019-02-04T00:53:36.831Z,362
2019-02-04T00:54:43.823Z,362
2019-02-04T00:55:50.759Z,362
2019-02-04T00:56:57.676Z,362
2019-02-04T00:58:04.867Z,362
2019-02-04T00:59:11.779Z,363
2019-02-04T01:00:18.969Z,362
2019-02-04T01:01:26.000Z,363
2019-02-04T01:02:33.190Z,363
2019-02-04T01:03:40.111Z,364
2019-02-04T01:04:47.301Z,363
2019-02-04T01:05:54.499Z,364
2019-02-04T01:07:01.685Z,363
2019-02-04T01:08:08.876Z,363
2019-02-04T01:09:16.174Z,363
2019-02-04T01:10:23.095Z,363
2019-02-04T01:11:30.283Z,363
2019-02-04T01:12:37.194Z,362
2019-02-04T01:13:44.379Z,362
2019-02-04T01:14:51.570Z,363
2019-02-04T01:15:58.764Z,363
2019-02-04T01:17:05.954Z,362
2019-02-04T01:18:13.152Z,363
2019-02-04T01:19:20.562Z,364
2019-02-04T01:20:28.307Z,364
2019-02-04T01:21:35.468Z,364
2019-02-04T01:22:43.655Z,364
2019-02-04T01:23:51.672Z,364
2019-02-04T01:24:59.846Z,364
2019-02-04T01:26:07.951Z,364
2019-02-04T01:27:15.755Z,364
2019-02-04T01:28:24.073Z,363
2019-02-04T01:29:32.368Z,363
2019-02-04T01:30:40.774Z,364
2019-02-04T01:31:48.772Z,364
2019-02-04T01:32:56.982Z,364
2019-02-04T01:34:04.760Z,364
2019-02-04T01:35:12.269Z,364
2019-02-04T01:36:19.179Z,365
2019-02-04T01:37:26.368Z,364
2019-02-04T01:38:33.289Z,364
2019-02-04T01:39:40.477Z,364
2019-02-04T01:40:47.392Z,364
2019-02-04T01:41:54.316Z,365
2019-02-04T01:43:01.505Z,366
2019-02-04T01:44:08.720Z,366
2019-02-04T01:45:15.915Z,366
2019-02-04T01:46:22.834Z,368
2019-02-04T01:47:30.023Z,367
2019-02-04T01:48:36.679Z,368
2019-02-04T01:49:43.868Z,367
2019-02-04T01:50:51.060Z,366
2019-02-04T01:51:58.250Z,366
2019-02-04T01:53:05.441Z,367
2019-02-04T01:54:12.630Z,368
2019-02-04T01:55:19.820Z,367
2019-02-04T01:56:26.738Z,366
2019-02-04T01:57:33.925Z,366
2019-02-04T01:58:41.116Z,368
2019-02-04T02:00:02.954Z,368
2019-02-04T02:01:10.149Z,368
2019-02-04T02:02:17.339Z,368
2019-02-04T02:03:24.261Z,367
2019-02-04T02:04:31.175Z,368
2019-02-04T02:05:38.367Z,369
2019-02-04T02:06:45.556Z,368
2019-02-04T02:07:52.746Z,369
2019-02-04T02:08:59.683Z,368
2019-02-04T02:10:06.881Z,368
2019-02-04T02:11:14.065Z,369
2019-02-04T02:12:21.260Z,368
2019-02-04T02:13:28.179Z,368
2019-02-04T02:14:34.826Z,369
2019-02-04T02:15:42.020Z,369
2019-02-04T02:16:48.941Z,368
2019-02-04T02:17:56.136Z,368
2019-02-04T02:19:03.324Z,370
2019-02-04T02:20:10.510Z,368
2019-02-04T02:21:17.425Z,368
2019-02-04T02:22:24.617Z,369
2019-02-04T02:23:31.898Z,369
2019-02-04T02:24:39.084Z,369
2019-02-04T02:25:46.273Z,369
2019-02-04T02:26:53.471Z,370
2019-02-04T02:28:00.664Z,370
2019-02-04T02:29:07.881Z,370
2019-02-04T02:30:15.225Z,369
2019-02-04T02:31:22.395Z,370
2019-02-04T02:32:30.503Z,370
2019-02-04T02:33:38.821Z,370
2019-02-04T02:34:47.004Z,370
2019-02-04T02:35:55.110Z,369
2019-02-04T02:37:03.510Z,369
2019-02-04T02:38:11.122Z,369
2019-02-04T02:39:18.938Z,369
2019-02-04T02:40:26.129Z,369
2019-02-04T02:41:33.314Z,370
2019-02-04T02:42:40.600Z,369
2019-02-04T02:43:47.792Z,370
2019-02-04T02:44:54.979Z,368
2019-02-04T02:46:02.344Z,368
2019-02-04T02:47:09.531Z,369
2019-02-04T02:48:16.720Z,368
2019-02-04T02:49:23.631Z,367
2019-02-04T02:50:30.547Z,366
2019-02-04T02:51:37.733Z,366
2019-02-04T02:52:44.922Z,366
2019-02-04T02:53:52.117Z,367
2019-02-04T02:54:59.306Z,368
2019-02-04T02:56:06.533Z,369
2019-02-04T02:57:13.455Z,369
2019-02-04T02:58:20.646Z,369
2019-02-04T02:59:27.838Z,369
2019-02-04T03:00:35.027Z,369
2019-02-04T03:01:42.213Z,369
2019-02-04T03:02:49.407Z,371
2019-02-04T03:03:56.604Z,371
2019-02-04T03:05:02.966Z,371
2019-02-04T03:06:09.885Z,369
2019-02-04T03:07:17.091Z,371
2019-02-04T03:08:24.288Z,370
2019-02-04T03:09:31.468Z,369
2019-02-04T03:10:38.657Z,369
2019-02-04T03:11:45.848Z,371
2019-02-04T03:12:52.765Z,370
2019-02-04T03:13:59.679Z,370
2019-02-04T03:15:06.868Z,370
2019-02-04T03:16:13.792Z,370
2019-02-04T03:17:20.980Z,369
2019-02-04T03:18:28.168Z,370
2019-02-04T03:19:35.370Z,371
2019-02-04T03:20:42.564Z,371
2019-02-04T03:21:50.328Z,371
2019-02-04T03:22:57.869Z,371
2019-02-04T03:24:05.981Z,371
2019-02-04T03:25:14.206Z,370
2019-02-04T03:26:22.470Z,370
2019-02-04T03:27:30.681Z,370
2019-02-04T03:28:39.082Z,370
2019-02-04T03:29:47.346Z,369
2019-02-04T03:30:55.897Z,370
2019-02-04T03:32:04.389Z,369
2019-02-04T03:33:12.547Z,369
2019-02-04T03:34:20.922Z,369
2019-02-04T03:35:28.430Z,369
2019-02-04T03:36:36.044Z,369
2019-02-04T03:37:42.953Z,369
2019-02-04T03:38:49.874Z,368
2019-02-04T03:39:57.061Z,368
2019-02-04T03:41:04.248Z,367
2019-02-04T03:42:11.441Z,367
2019-02-04T03:43:18.360Z,366
2019-02-04T03:44:25.555Z,368
2019-02-04T03:45:32.742Z,368
2019-02-04T03:46:39.935Z,368
2019-02-04T03:47:47.124Z,368
2019-02-04T03:48:54.401Z,368
2019-02-04T03:50:01.318Z,368
2019-02-04T03:51:08.424Z,368
2019-02-04T03:52:15.617Z,368
2019-02-04T03:53:22.808Z,368
2019-02-04T03:54:29.444Z,369
2019-02-04T03:55:36.633Z,368
2019-02-04T03:56:43.543Z,369
2019-02-04T03:57:50.731Z,369
2019-02-04T03:58:57.917Z,370
2019-02-04T04:00:04.851Z,370
2019-02-04T04:01:12.031Z,371
2019-02-04T04:02:19.220Z,372
2019-02-04T04:03:26.409Z,371
2019-02-04T04:04:33.599Z,371
2019-02-04T04:05:40.791Z,372
2019-02-04T04:06:47.983Z,371
2019-02-04T04:07:55.014Z,370
2019-02-04T04:09:02.205Z,370
2019-02-04T04:10:09.391Z,370
2019-02-04T04:11:16.581Z,370
2019-02-04T04:12:23.779Z,369
2019-02-04T04:13:30.973Z,371
2019-02-04T04:14:37.627Z,370
2019-02-04T04:15:44.553Z,371
2019-02-04T04:16:51.739Z,370
2019-02-04T04:17:58.933Z,370
2019-02-04T04:19:06.123Z,370
2019-02-04T04:20:13.309Z,371
2019-02-04T04:21:20.499Z,373
2019-02-04T04:22:28.248Z,373
2019-02-04T04:23:35.933Z,372
2019-02-04T04:24:44.177Z,372
2019-02-04T04:25:52.249Z,372
2019-02-04T04:26:59.805Z,372
2019-02-04T04:28:07.667Z,372
2019-02-04T04:29:15.918Z,372
2019-02-04T04:30:23.439Z,372
2019-02-04T04:31:30.356Z,373
2019-02-04T04:32:37.578Z,373
2019-02-04T04:33:44.772Z,372
2019-02-04T04:34:52.047Z,371
2019-02-04T04:35:59.235Z,371
2019-02-04T04:37:06.424Z,372
2019-02-04T04:38:13.613Z,372
2019-02-04T04:39:20.808Z,371
2019-02-04T04:40:28.007Z,371
2019-02-04T04:41:35.195Z,372
2019-02-04T04:42:42.384Z,373
2019-02-04T04:43:49.578Z,373
2019-02-04T04:44:56.767Z,372
2019-02-04T04:46:03.954Z,372
2019-02-04T04:47:11.140Z,372
2019-02-04T04:48:27.434Z,372
2019-02-04T04:49:34.349Z,372
2019-02-04T04:50:41.268Z,372
2019-02-04T04:51:48.460Z,372
2019-02-04T04:52:55.653Z,372
2019-02-04T04:54:02.849Z,372
2019-02-04T04:55:10.035Z,372
2019-02-04T04:56:17.225Z,373
2019-02-04T04:57:24.414Z,373
2019-02-04T04:58:31.616Z,372
2019-02-04T04:59:38.540Z,373
2019-02-04T05:00:45.462Z,374
2019-02-04T05:01:52.379Z,374
2019-02-04T05:02:59.576Z,374
2019-02-04T05:04:06.759Z,374
2019-02-04T05:05:13.672Z,373
2019-02-04T05:06:20.865Z,374
2019-02-04T05:07:28.045Z,374
2019-02-04T05:08:34.962Z,374
2019-02-04T05:09:41.879Z,375
2019-02-04T05:10:49.067Z,374
2019-02-04T05:11:55.981Z,374
2019-02-04T05:13:02.899Z,375
2019-02-04T05:14:10.086Z,375
2019-02-04T05:15:17.310Z,374
2019-02-04T05:16:24.502Z,375
2019-02-04T05:17:31.415Z,374
2019-02-04T05:18:39.481Z,374
2019-02-04T05:19:46.960Z,374
2019-02-04T05:20:54.591Z,374
2019-02-04T05:22:02.040Z,374
2019-02-04T05:23:10.030Z,374
2019-02-04T05:24:18.194Z,374
2019-02-04T05:25:26.432Z,373
2019-02-04T05:26:34.476Z,374
2019-02-04T05:27:42.825Z,372
2019-02-04T05:28:50.964Z,373
2019-02-04T05:29:58.861Z,373
2019-02-04T05:31:07.492Z,373
2019-02-04T05:32:15.865Z,373
2019-02-04T05:33:23.859Z,373
2019-02-04T05:34:31.942Z,374
2019-02-04T05:35:39.497Z,374
2019-02-04T05:36:46.386Z,374
2019-02-04T05:37:53.692Z,374
2019-02-04T05:39:00.881Z,375
2019-02-04T05:40:07.916Z,375
2019-02-04T05:41:15.100Z,375
2019-02-04T05:42:22.288Z,374
2019-02-04T05:43:29.686Z,375
2019-02-04T05:44:36.876Z,374
2019-02-04T05:45:44.071Z,375
2019-02-04T05:46:53.099Z,375
2019-02-04T05:48:00.287Z,374
2019-02-04T05:49:07.490Z,374
2019-02-04T05:50:17.986Z,374
2019-02-04T05:51:25.215Z,375
2019-02-04T05:52:32.407Z,375
2019-02-04T05:53:39.324Z,376
2019-02-04T05:54:46.238Z,375
2019-02-04T05:55:53.427Z,375
2019-02-04T05:57:00.616Z,375
2019-02-04T05:58:07.806Z,375
2019-02-04T05:59:14.723Z,374
2019-02-04T06:00:21.942Z,375
2019-02-04T06:01:28.854Z,376
2019-02-04T06:02:36.043Z,375
2019-02-04T06:03:43.232Z,375
2019-02-04T06:04:50.427Z,375
2019-02-04T06:05:57.616Z,375
2019-02-04T06:07:04.531Z,375
2019-02-04T06:08:11.717Z,375
2019-02-04T06:09:18.903Z,374
2019-02-04T06:10:26.102Z,374
2019-02-04T06:11:33.293Z,375
2019-02-04T06:12:40.208Z,375
2019-02-04T06:13:47.133Z,376
2019-02-04T06:14:54.327Z,376
2019-02-04T06:16:01.246Z,376
2019-02-04T06:17:08.449Z,375
2019-02-04T06:18:15.636Z,376
2019-02-04T06:19:22.560Z,376
2019-02-04T06:20:29.746Z,376
2019-02-04T06:21:37.357Z,376
2019-02-04T06:22:45.084Z,374
2019-02-04T06:23:52.743Z,374
2019-02-04T06:25:01.005Z,374
2019-02-04T06:26:08.793Z,374
2019-02-04T06:27:16.909Z,374
2019-02-04T06:28:27.098Z,375
2019-02-04T06:29:35.245Z,376
2019-02-04T06:30:43.414Z,375
2019-02-04T06:31:51.604Z,376
2019-02-04T06:32:59.736Z,376
2019-02-04T06:34:07.960Z,376
2019-02-04T06:35:16.628Z,375
2019-02-04T06:36:25.185Z,375
2019-02-04T06:37:33.757Z,376
2019-02-04T06:38:41.448Z,377
2019-02-04T06:39:48.751Z,376
2019-02-04T06:40:55.777Z,376
2019-02-04T06:42:02.990Z,376
2019-02-04T06:43:10.280Z,375
2019-02-04T06:44:17.470Z,376
2019-02-04T06:45:24.383Z,375
2019-02-04T06:46:31.573Z,375
2019-02-04T06:47:38.763Z,376
2019-02-04T06:48:45.953Z,375
2019-02-04T06:49:53.140Z,375
2019-02-04T06:51:00.417Z,375
2019-02-04T06:52:07.343Z,376
2019-02-04T06:53:14.532Z,376
2019-02-04T06:54:21.451Z,376
2019-02-04T06:55:28.725Z,376
2019-02-04T06:56:37.171Z,375
2019-02-04T06:57:44.357Z,375
2019-02-04T06:58:51.270Z,374
2019-02-04T06:59:58.464Z,375
2019-02-04T07:01:05.379Z,374
2019-02-04T07:02:12.585Z,375
2019-02-04T07:03:19.500Z,376
2019-02-04T07:04:25.864Z,375
2019-02-04T07:05:44.714Z,376
2019-02-04T07:06:51.631Z,376
2019-02-04T07:07:58.544Z,376
2019-02-04T07:09:05.733Z,376
2019-02-04T07:10:12.642Z,377
2019-02-04T07:11:19.830Z,377
2019-02-04T07:12:26.748Z,376
2019-02-04T07:13:33.935Z,375
2019-02-04T07:14:41.127Z,374
2019-02-04T07:15:48.315Z,375
2019-02-04T07:16:55.512Z,375
2019-02-04T07:18:03.211Z,375
2019-02-04T07:19:10.401Z,375
2019-02-04T07:20:17.585Z,375
2019-02-04T07:21:24.504Z,375
2019-02-04T07:22:31.691Z,375
2019-02-04T07:23:38.880Z,375
2019-02-04T07:24:46.074Z,376
2019-02-04T07:25:53.262Z,375
2019-02-04T07:27:00.829Z,375
2019-02-04T07:28:08.735Z,375
2019-02-04T07:29:16.495Z,374
2019-02-04T07:30:24.840Z,374
2019-02-04T07:31:33.415Z,372
2019-02-04T07:32:41.872Z,373
2019-02-04T07:33:50.086Z,372
2019-02-04T07:34:58.453Z,373
2019-02-04T07:36:05.746Z,373
2019-02-04T07:37:12.978Z,372
2019-02-04T07:38:34.819Z,373
2019-02-04T07:39:42.003Z,372
2019-02-04T07:40:49.334Z,371
2019-02-04T07:41:57.064Z,372
2019-02-04T07:43:05.268Z,372
2019-02-04T07:44:13.320Z,372
2019-02-04T07:45:21.635Z,372
2019-02-04T07:46:30.056Z,372
2019-02-04T07:47:38.207Z,371
2019-02-04T07:48:46.705Z,372
2019-02-04T07:49:55.092Z,371
2019-02-04T07:51:03.548Z,371
2019-02-04T07:52:12.079Z,371
2019-02-04T07:53:20.224Z,370
2019-02-04T07:54:28.337Z,371
2019-02-04T07:55:36.013Z,370
2019-02-04T07:56:42.922Z,370
2019-02-04T07:57:49.838Z,370
2019-02-04T07:58:57.025Z,370
2019-02-04T08:00:04.221Z,370
2019-02-04T08:01:11.489Z,369
2019-02-04T08:02:18.672Z,369
2019-02-04T08:03:25.919Z,369
2019-02-04T08:04:32.827Z,369
2019-02-04T08:05:39.757Z,368
2019-02-04T08:06:46.938Z,368
2019-02-04T08:07:54.133Z,367
2019-02-04T08:09:01.323Z,367
2019-02-04T08:10:08.507Z,367
2019-02-04T08:11:15.421Z,368
2019-02-04T08:12:22.610Z,367
2019-02-04T08:13:29.528Z,367
2019-02-04T08:14:36.720Z,366
2019-02-04T08:15:43.919Z,366
2019-02-04T08:16:50.856Z,366
2019-02-04T08:17:58.044Z,366
2019-02-04T08:19:05.236Z,365
2019-02-04T08:20:12.153Z,366
2019-02-04T08:21:19.342Z,365
2019-02-04T08:22:26.535Z,365
2019-02-04T08:23:33.727Z,364
2019-02-04T08:24:40.918Z,365
2019-02-04T08:25:48.107Z,365
2019-02-04T08:26:55.293Z,364
2019-02-04T08:28:02.489Z,364
2019-02-04T08:29:09.679Z,364
2019-02-04T08:30:16.608Z,364
2019-02-04T08:31:23.795Z,364
2019-02-04T08:32:30.157Z,363
2019-02-04T08:33:37.350Z,363
2019-02-04T08:34:44.636Z,363
2019-02-04T08:35:52.249Z,364
2019-02-04T08:36:59.859Z,363
2019-02-04T08:38:08.268Z,363
2019-02-04T08:39:16.566Z,363
2019-02-04T08:40:24.666Z,362
2019-02-04T08:41:33.178Z,363
2019-02-04T08:42:40.860Z,362
2019-02-04T08:43:48.692Z,362
2019-02-04T08:44:56.044Z,361
2019-02-04T08:46:03.238Z,362
2019-02-04T08:47:10.442Z,361
2019-02-04T08:48:30.210Z,361
2019-02-04T08:49:38.301Z,361
2019-02-04T08:50:46.620Z,361
2019-02-04T08:51:54.938Z,361
2019-02-04T08:53:02.828Z,361
2019-02-04T08:54:10.348Z,361
2019-02-04T08:55:17.533Z,362
2019-02-04T08:56:24.732Z,362
2019-02-04T08:57:32.029Z,362
2019-02-04T08:58:38.950Z,360
2019-02-04T08:59:46.141Z,362
2019-02-04T09:00:53.330Z,360
2019-02-04T09:02:00.516Z,361
2019-02-04T09:03:07.434Z,361
2019-02-04T09:04:14.742Z,361
2019-02-04T09:05:21.931Z,361
2019-02-04T09:06:28.854Z,361
2019-02-04T09:07:36.046Z,361
2019-02-04T09:08:43.238Z,360
2019-02-04T09:09:50.428Z,360
2019-02-04T09:10:57.354Z,359
2019-02-04T09:12:04.544Z,359
2019-02-04T09:13:11.734Z,360
2019-02-04T09:14:18.932Z,359
2019-02-04T09:15:25.861Z,359
2019-02-04T09:16:33.092Z,360
2019-02-04T09:17:40.277Z,360
2019-02-04T09:18:47.465Z,359
2019-02-04T09:19:54.665Z,360
2019-02-04T09:21:01.856Z,360
2019-02-04T09:22:09.049Z,359
2019-02-04T09:23:16.256Z,361
2019-02-04T09:24:23.456Z,361
2019-02-04T09:25:30.608Z,361
2019-02-04T09:26:37.791Z,360
2019-02-04T09:27:45.149Z,361
2019-02-04T09:28:52.664Z,360
2019-02-04T09:30:00.462Z,358
2019-02-04T09:31:08.755Z,356
2019-02-04T09:32:16.676Z,353
2019-02-04T09:33:25.033Z,351
2019-02-04T09:34:33.189Z,348
2019-02-04T09:35:41.392Z,348
2019-02-04T09:36:49.773Z,348
2019-02-04T09:37:57.664Z,349
2019-02-04T09:39:04.861Z,351
2019-02-04T09:40:11.505Z,353
2019-02-04T09:41:18.698Z,355
2019-02-04T09:42:26.003Z,356
2019-02-04T09:43:32.922Z,357
2019-02-04T09:44:39.849Z,358
2019-02-04T09:45:47.043Z,356
2019-02-04T09:46:54.249Z,358
2019-02-04T09:48:01.449Z,358
2019-02-04T09:49:08.365Z,358
2019-02-04T09:50:22.785Z,357
2019-02-04T09:51:29.713Z,358
2019-02-04T09:52:36.911Z,357
2019-02-04T09:53:44.114Z,357
2019-02-04T09:54:51.311Z,356
2019-02-04T09:55:58.507Z,357
2019-02-04T09:57:05.697Z,356
2019-02-04T09:58:12.889Z,357
2019-02-04T09:59:20.080Z,357
2019-02-04T10:00:27.272Z,357
2019-02-04T10:01:34.460Z,357
2019-02-04T10:02:41.652Z,357
2019-02-04T10:03:48.848Z,358
2019-02-04T10:04:55.770Z,357
2019-02-04T10:06:02.962Z,357
2019-02-04T10:07:10.162Z,358
2019-02-04T10:08:17.349Z,358
2019-02-04T10:09:24.540Z,358
2019-02-04T10:10:31.730Z,358
2019-02-04T10:11:38.762Z,357
2019-02-04T10:12:45.680Z,356
2019-02-04T10:13:52.875Z,356
2019-02-04T10:15:00.185Z,354
2019-02-04T10:16:07.611Z,352
2019-02-04T10:17:14.992Z,349
2019-02-04T10:18:22.246Z,348
2019-02-04T10:19:29.504Z,349
2019-02-04T10:20:36.741Z,348
2019-02-04T10:21:44.043Z,350
2019-02-04T10:22:51.318Z,349
2019-02-04T10:23:58.610Z,348
2019-02-04T10:25:06.107Z,350
2019-02-04T10:26:13.542Z,350
2019-02-04T10:27:21.168Z,349
2019-02-04T10:28:29.545Z,348
2019-02-04T10:29:37.720Z,349
2019-02-04T10:30:45.988Z,349
2019-02-04T10:31:54.451Z,348
2019-02-04T10:33:02.868Z,350
2019-02-04T10:34:11.405Z,350
2019-02-04T10:35:19.637Z,350
2019-02-04T10:36:28.157Z,348
2019-02-04T10:37:36.593Z,349
2019-02-04T10:38:44.396Z,349
2019-02-04T10:39:52.222Z,348
2019-02-04T10:41:00.163Z,348
2019-02-04T10:42:07.518Z,347
2019-02-04T10:43:14.784Z,346
2019-02-04T10:44:22.115Z,343
2019-02-04T10:45:29.374Z,341
2019-02-04T10:46:36.693Z,341
2019-02-04T10:47:43.715Z,341
2019-02-04T10:48:51.003Z,340
2019-02-04T10:49:58.253Z,338
2019-02-04T10:51:05.542Z,337
2019-02-04T10:52:12.791Z,338
2019-02-04T10:53:20.254Z,338
2019-02-04T10:54:27.587Z,337
2019-02-04T10:55:34.881Z,336
2019-02-04T10:56:42.143Z,337
2019-02-04T10:57:49.137Z,337
2019-02-04T10:58:56.464Z,337
2019-02-04T11:00:03.596Z,336
2019-02-04T11:01:10.924Z,336
2019-02-04T11:02:17.960Z,335
2019-02-04T11:03:24.947Z,335
2019-02-04T11:04:32.177Z,334
2019-02-04T11:05:39.429Z,333
2019-02-04T11:06:46.740Z,334
2019-02-04T11:07:53.951Z,333
2019-02-04T11:09:01.273Z,335
2019-02-04T11:10:08.510Z,337
2019-02-04T11:11:15.876Z,337
2019-02-04T11:12:23.164Z,336
2019-02-04T11:13:30.453Z,336
2019-02-04T11:14:37.661Z,336
2019-02-04T11:15:44.967Z,334
2019-02-04T11:16:52.288Z,333
2019-02-04T11:17:59.663Z,335
2019-02-04T11:19:06.938Z,335
2019-02-04T11:20:14.258Z,335
2019-02-04T11:21:21.487Z,335
2019-02-04T11:22:28.728Z,335
2019-02-04T11:23:36.175Z,333
2019-02-04T11:24:43.962Z,330
2019-02-04T11:25:51.847Z,332
2019-02-04T11:26:59.790Z,332
2019-02-04T11:28:08.173Z,330
2019-02-04T11:29:19.362Z,330
2019-02-04T11:30:27.201Z,328
2019-02-04T11:31:35.165Z,327
2019-02-04T11:32:42.977Z,330
2019-02-04T11:33:51.254Z,332
2019-02-04T11:34:59.543Z,330
2019-02-04T11:36:08.019Z,327
2019-02-04T11:37:16.247Z,325
2019-02-04T11:38:24.742Z,325
2019-02-04T11:39:33.265Z,328
2019-02-04T11:40:41.456Z,327
2019-02-04T11:41:50.003Z,330
2019-02-04T11:42:58.783Z,330
2019-02-04T11:44:06.686Z,332
2019-02-04T11:45:14.909Z,332
2019-02-04T11:46:22.748Z,332
2019-02-04T11:47:30.010Z,331
2019-02-04T11:48:36.986Z,334
2019-02-04T11:49:44.214Z,330
2019-02-04T11:50:51.414Z,329
2019-02-04T11:51:58.339Z,326
2019-02-04T11:53:05.268Z,328
2019-02-04T11:54:12.462Z,326
2019-02-04T11:55:19.658Z,327
2019-02-04T11:56:26.854Z,324
2019-02-04T11:57:34.048Z,324
2019-02-04T11:58:41.246Z,323
2019-02-04T11:59:48.441Z,324
2019-02-04T12:00:55.641Z,324
2019-02-04T12:02:02.571Z,324
2019-02-04T12:03:09.762Z,324
2019-02-04T12:04:16.956Z,327
2019-02-04T12:05:23.887Z,327
2019-02-04T12:06:30.830Z,328
2019-02-04T12:07:38.030Z,326
2019-02-04T12:08:45.222Z,322
2019-02-04T12:09:52.420Z,322
2019-02-04T12:10:59.624Z,325
2019-02-04T12:12:06.819Z,331
2019-02-04T12:13:14.020Z,329
2019-02-04T12:14:21.217Z,328
2019-02-04T12:15:28.139Z,327
2019-02-04T12:16:35.116Z,326
2019-02-04T12:17:42.309Z,325
2019-02-04T12:18:49.506Z,327
2019-02-04T12:19:56.435Z,327
2019-02-04T12:21:03.365Z,329
2019-02-04T12:22:10.285Z,331
2019-02-04T12:23:17.485Z,329
2019-02-04T12:24:24.522Z,326
2019-02-04T12:25:31.716Z,325
2019-02-04T12:26:39.117Z,326
2019-02-04T12:27:46.711Z,326
2019-02-04T12:28:57.760Z,327
2019-02-04T12:30:05.713Z,326
2019-02-04T12:31:13.332Z,328
2019-02-04T12:32:21.264Z,327
2019-02-04T12:33:29.638Z,329
2019-02-04T12:34:38.024Z,331
2019-02-04T12:35:46.487Z,332
2019-02-04T12:36:54.815Z,331
2019-02-04T12:38:03.023Z,331
2019-02-04T12:39:11.062Z,329
2019-02-04T12:40:18.920Z,328
2019-02-04T12:41:26.260Z,328
2019-02-04T12:42:33.451Z,328
2019-02-04T12:43:40.743Z,329
2019-02-04T12:44:47.937Z,331
2019-02-04T12:45:55.135Z,328
2019-02-04T12:47:02.331Z,330
2019-02-04T12:48:09.528Z,331
2019-02-04T12:49:16.450Z,330
2019-02-04T12:50:26.505Z,330
2019-02-04T12:51:34.918Z,331
2019-02-04T12:52:41.836Z,329
2019-02-04T12:53:48.757Z,328
2019-02-04T12:54:55.959Z,330
2019-02-04T12:56:03.161Z,331
2019-02-04T12:57:10.358Z,330
2019-02-04T12:58:17.552Z,328
2019-02-04T12:59:24.753Z,327
2019-02-04T13:00:31.952Z,329
2019-02-04T13:01:39.145Z,331
2019-02-04T13:02:46.345Z,329
2019-02-04T13:03:53.275Z,329
2019-02-04T13:05:00.239Z,325
2019-02-04T13:06:07.446Z,327
2019-02-04T13:07:14.090Z,328
2019-02-04T13:08:21.018Z,326
2019-02-04T13:09:28.213Z,328
2019-02-04T13:10:35.429Z,328
2019-02-04T13:11:43.434Z,328
2019-02-04T13:12:50.633Z,326
2019-02-04T13:13:57.834Z,328
2019-02-04T13:15:05.051Z,328
2019-02-04T13:16:12.243Z,329
2019-02-04T13:17:19.462Z,330
2019-02-04T13:18:26.394Z,330
2019-02-04T13:19:33.599Z,328
2019-02-04T13:20:40.796Z,330
2019-02-04T13:21:47.991Z,330
2019-02-04T13:22:55.197Z,332
2019-02-04T13:24:02.395Z,333
2019-02-04T13:25:10.019Z,332
2019-02-04T13:26:17.764Z,332
2019-02-04T13:27:25.755Z,331
2019-02-04T13:28:34.255Z,332
2019-02-04T13:29:42.530Z,331
2019-02-04T13:30:50.912Z,332
2019-02-04T13:31:59.282Z,334
2019-02-04T13:33:07.169Z,335
2019-02-04T13:34:15.633Z,335
2019-02-04T13:35:24.080Z,334
2019-02-04T13:36:31.956Z,335
2019-02-04T13:37:40.017Z,333
2019-02-04T13:38:47.498Z,331
2019-02-04T13:39:54.701Z,332
2019-02-04T13:41:12.640Z,332
2019-02-04T13:42:20.350Z,332
2019-02-04T13:43:28.303Z,331
2019-02-04T13:44:36.677Z,329
2019-02-04T13:45:44.821Z,329
2019-02-04T13:46:53.102Z,328
2019-02-04T13:48:01.456Z,328
2019-02-04T13:49:09.927Z,328
2019-02-04T13:50:18.232Z,328
2019-02-04T13:51:26.261Z,328
2019-02-04T13:52:37.764Z,327
2019-02-04T13:53:45.991Z,326
2019-02-04T13:54:54.237Z,325
2019-02-04T13:56:02.210Z,326
2019-02-04T13:57:10.673Z,328
2019-02-04T13:58:21.601Z,326
2019-02-04T13:59:30.174Z,324
2019-02-04T14:00:38.212Z,325
2019-02-04T14:01:46.683Z,324
2019-02-04T14:03:00.431Z,325
2019-02-04T14:04:07.632Z,324
2019-02-04T14:05:15.494Z,325
2019-02-04T14:06:23.262Z,326
2019-02-04T14:07:31.148Z,325
2019-02-04T14:08:39.382Z,324
2019-02-04T14:09:47.597Z,326
2019-02-04T14:10:55.943Z,327
2019-02-04T14:12:03.967Z,327
2019-02-04T14:13:12.136Z,326
2019-02-04T14:14:20.522Z,326
2019-02-04T14:15:29.007Z,328
2019-02-04T14:16:37.003Z,329
2019-02-04T14:17:45.195Z,329
2019-02-04T14:18:53.446Z,331
2019-02-04T14:20:01.775Z,331
2019-02-04T14:21:10.217Z,331
2019-02-04T14:22:18.632Z,331
2019-02-04T14:23:29.115Z,331
2019-02-04T14:24:37.623Z,331
2019-02-04T14:25:46.061Z,332
2019-02-04T14:26:54.508Z,332
2019-02-04T14:28:06.564Z,330
2019-02-04T14:29:14.328Z,330
2019-02-04T14:30:22.499Z,331
2019-02-04T14:31:30.823Z,331
2019-02-04T14:32:38.850Z,331
2019-02-04T14:33:47.186Z,333
2019-02-04T14:34:56.352Z,335
2019-02-04T14:36:04.630Z,336
2019-02-04T14:37:12.931Z,335
2019-02-04T14:38:21.066Z,334
2019-02-04T14:39:29.395Z,332
2019-02-04T14:40:37.983Z,333
2019-02-04T14:41:46.256Z,334
2019-02-04T14:42:54.207Z,335
2019-02-04T14:44:02.041Z,336
2019-02-04T14:45:09.628Z,337
2019-02-04T14:46:16.801Z,338
2019-02-04T14:47:38.666Z,339
2019-02-04T14:48:45.860Z,339
2019-02-04T14:49:53.060Z,338
2019-02-04T14:51:00.252Z,337
2019-02-04T14:52:07.539Z,337
2019-02-04T14:53:14.907Z,336
2019-02-04T14:54:22.939Z,335
2019-02-04T14:55:30.886Z,335
2019-02-04T14:56:38.871Z,334
2019-02-04T14:57:46.663Z,333
2019-02-04T14:58:54.576Z,332
2019-02-04T15:00:02.897Z,333
2019-02-04T15:01:11.174Z,333
2019-02-04T15:02:19.364Z,336
2019-02-04T15:03:27.608Z,335
2019-02-04T15:04:35.701Z,334
2019-02-04T15:05:44.088Z,335
2019-02-04T15:06:52.224Z,336
2019-02-04T15:08:00.411Z,336
2019-02-04T15:09:08.781Z,336
2019-02-04T15:10:17.131Z,338
2019-02-04T15:11:25.593Z,338
2019-02-04T15:12:33.771Z,338
2019-02-04T15:13:42.135Z,337
2019-02-04T15:14:50.573Z,336
2019-02-04T15:15:58.957Z,336
2019-02-04T15:17:07.500Z,337
2019-02-04T15:18:15.742Z,340
2019-02-04T15:19:24.153Z,339
2019-02-04T15:20:32.714Z,340
2019-02-04T15:21:43.943Z,338
2019-02-04T15:22:52.080Z,339
2019-02-04T15:24:09.771Z,339
2019-02-04T15:25:18.288Z,342
2019-02-04T15:26:25.484Z,344
2019-02-04T15:27:32.408Z,345
2019-02-04T15:28:39.374Z,345
2019-02-04T15:29:48.006Z,346
2019-02-04T15:30:54.942Z,346
2019-02-04T15:32:02.067Z,347